createdAt,value
2017-10-01T00:01:10.630Z,13.90
2017-10-01T00:03:40.235Z,13.75
2017-10-01T00:06:10.056Z,10.57
2017-10-01T00:08:40.167Z,11.43
2017-10-01T00:11:10.566Z,12.27
2017-10-01T00:13:40.727Z,16.02
2017-10-01T00:16:10.552Z,14.50
2017-10-01T00:18:41.295Z,11.77
2017-10-01T00:21:10.981Z,11.18
2017-10-01T00:23:41.508Z,12.65
2017-10-01T00:26:11.279Z,14.20
2017-10-01T00:28:41.673Z,14.98
2017-10-01T00:31:12.239Z,15.83
2017-10-01T00:33:43.074Z,14.10
2017-10-01T00:36:12.986Z,13.57
2017-10-01T00:38:43.881Z,12.88
2017-10-01T00:41:13.470Z,14.00
2017-10-01T00:43:43.455Z,12.23
2017-10-01T00:46:13.962Z,8.70
2017-10-01T00:48:44.835Z,3.75
2017-10-01T00:51:14.945Z,2.50
2017-10-01T00:53:44.591Z,2.30
2017-10-01T00:56:14.591Z,2.07
2017-10-01T00:58:44.578Z,1.95
2017-10-01T01:01:14.727Z,1.80
2017-10-01T01:03:45.039Z,1.80
2017-10-01T01:06:15.358Z,1.50
2017-10-01T01:08:46.067Z,1.40
2017-10-01T01:11:16.604Z,1.50
2017-10-01T01:13:47.414Z,1.70
2017-10-01T01:16:17.207Z,1.40
2017-10-01T01:18:47.519Z,1.40
2017-10-01T01:21:17.594Z,1.67
2017-10-01T01:23:48.246Z,1.48
2017-10-01T01:26:18.130Z,1.70
2017-10-01T01:28:48.099Z,1.42
2017-10-01T01:31:18.683Z,1.40
2017-10-01T01:33:50.154Z,1.48
2017-10-01T01:36:21.034Z,1.12
2017-10-01T01:38:50.697Z,2.00
2017-10-01T01:41:21.047Z,4.30
2017-10-01T01:43:51.047Z,5.00
2017-10-01T01:46:20.879Z,5.20
2017-10-01T01:48:51.167Z,4.55
2017-10-01T01:51:21.114Z,4.70
2017-10-01T01:53:51.041Z,4.20
2017-10-01T01:56:21.697Z,3.90
2017-10-01T01:58:51.727Z,4.10
2017-10-01T02:01:21.307Z,3.80
2017-10-01T02:03:51.251Z,3.80
2017-10-01T02:06:20.847Z,2.90
2017-10-01T02:08:50.557Z,3.00
2017-10-01T02:11:20.289Z,2.78
2017-10-01T02:13:50.261Z,3.17
2017-10-01T02:16:21.991Z,2.70
2017-10-01T02:18:51.710Z,4.45
2017-10-01T02:21:21.679Z,3.60
2017-10-01T02:23:52.006Z,3.55
2017-10-01T02:26:22.052Z,3.70
2017-10-01T02:28:52.790Z,3.40
2017-10-01T02:31:23.594Z,3.33
2017-10-01T02:33:53.491Z,3.40
2017-10-01T02:36:25.600Z,3.20
2017-10-01T02:38:55.520Z,3.40
2017-10-01T02:41:25.446Z,3.60
2017-10-01T02:43:56.022Z,3.63
2017-10-01T02:46:25.936Z,3.90
2017-10-01T02:48:56.051Z,3.60
2017-10-01T02:51:25.951Z,4.00
2017-10-01T02:53:56.243Z,3.85
2017-10-01T02:56:26.334Z,3.70
2017-10-01T02:58:57.258Z,3.15
2017-10-01T03:01:27.611Z,3.58
2017-10-01T03:03:57.767Z,2.50
2017-10-01T03:06:27.563Z,3.00
2017-10-01T03:08:57.559Z,3.00
2017-10-01T03:11:28.291Z,2.97
2017-10-01T03:13:59.230Z,2.70
2017-10-01T03:16:29.568Z,2.58
2017-10-01T03:18:59.439Z,2.70
2017-10-01T03:21:29.430Z,2.70
2017-10-01T03:23:59.182Z,3.28
2017-10-01T03:26:28.717Z,3.10
2017-10-01T03:28:59.354Z,2.97
2017-10-01T03:31:29.775Z,2.90
2017-10-01T03:33:59.347Z,3.50
2017-10-01T03:36:29.267Z,3.50
2017-10-01T03:38:58.900Z,3.30
2017-10-01T03:41:28.691Z,3.80
2017-10-01T03:43:58.253Z,3.70
2017-10-01T03:46:27.888Z,3.50
2017-10-01T03:48:57.917Z,3.30
2017-10-01T03:51:28.311Z,3.10
2017-10-01T03:53:57.910Z,4.00
2017-10-01T03:56:28.223Z,3.90
2017-10-01T03:58:58.031Z,3.70
2017-10-01T04:01:28.067Z,3.80
2017-10-01T04:03:58.214Z,3.15
2017-10-01T04:06:28.261Z,3.42
2017-10-01T04:08:58.484Z,3.00
2017-10-01T04:11:30.147Z,3.80
2017-10-01T04:13:59.985Z,3.70
2017-10-01T04:16:30.227Z,3.65
2017-10-01T04:19:00.016Z,3.75
2017-10-01T04:21:30.028Z,3.90
2017-10-01T04:23:59.967Z,3.43
2017-10-01T04:26:30.658Z,3.87
2017-10-01T04:29:00.912Z,4.18
2017-10-01T04:31:30.824Z,4.10
2017-10-01T04:34:01.013Z,3.95
2017-10-01T04:36:30.982Z,4.20
2017-10-01T04:39:00.827Z,3.92
2017-10-01T04:41:32.200Z,3.70
2017-10-01T04:44:01.983Z,4.20
2017-10-01T04:46:31.812Z,3.80
2017-10-01T04:49:02.122Z,4.20
2017-10-01T04:51:33.100Z,4.55
2017-10-01T04:54:02.859Z,4.60
2017-10-01T04:56:32.771Z,4.77
2017-10-01T04:59:02.804Z,4.70
2017-10-01T05:01:33.355Z,4.47
2017-10-01T05:04:02.870Z,4.03
2017-10-01T05:06:33.574Z,3.70
2017-10-01T05:09:03.795Z,4.00
2017-10-01T05:11:33.856Z,3.80
2017-10-01T05:14:04.625Z,3.90
2017-10-01T05:16:34.443Z,3.87
2017-10-01T05:19:04.768Z,4.05
2017-10-01T05:21:35.387Z,4.20
2017-10-01T05:24:06.928Z,4.25
2017-10-01T05:26:37.262Z,5.10
2017-10-01T05:29:07.952Z,4.03
2017-10-01T05:31:37.507Z,4.43
2017-10-01T05:34:07.509Z,3.45
2017-10-01T05:36:37.267Z,4.00
2017-10-01T05:39:07.372Z,2.80
2017-10-01T05:41:38.660Z,3.10
2017-10-01T05:44:08.498Z,3.20
2017-10-01T05:46:38.308Z,3.00
2017-10-01T05:49:08.098Z,2.70
2017-10-01T05:51:37.870Z,2.95
2017-10-01T05:54:08.639Z,3.37
2017-10-01T05:56:40.026Z,3.50
2017-10-01T05:59:09.778Z,2.97
2017-10-01T06:01:39.360Z,3.20
2017-10-01T06:04:09.334Z,3.43
2017-10-01T06:06:39.351Z,3.80
2017-10-01T06:09:09.166Z,3.70
2017-10-01T06:11:39.495Z,3.57
2017-10-01T06:14:09.857Z,2.80
2017-10-01T06:16:39.667Z,2.40
2017-10-01T06:19:09.902Z,2.40
2017-10-01T06:21:39.775Z,1.92
2017-10-01T06:24:09.423Z,1.60
2017-10-01T06:26:39.763Z,1.70
2017-10-01T06:29:09.902Z,1.50
2017-10-01T06:31:40.834Z,1.60
2017-10-01T06:34:11.986Z,1.50
2017-10-01T06:36:42.580Z,1.70
2017-10-01T06:39:12.578Z,1.80
2017-10-01T06:41:42.620Z,1.90
2017-10-01T06:44:13.041Z,0.80
2017-10-01T06:46:43.419Z,1.00
2017-10-01T06:49:13.927Z,0.80
2017-10-01T06:51:43.595Z,0.70
2017-10-01T06:54:13.714Z,0.73
2017-10-01T06:56:43.761Z,1.10
2017-10-01T06:59:17.075Z,1.00
2017-10-01T07:01:48.156Z,1.08
2017-10-01T07:04:17.850Z,0.90
2017-10-01T07:06:48.445Z,0.90
2017-10-01T07:09:18.111Z,0.90
2017-10-01T07:11:48.327Z,0.80
2017-10-01T07:14:18.853Z,1.40
2017-10-01T07:16:48.985Z,0.60
2017-10-01T07:19:19.798Z,1.15
2017-10-01T07:21:50.135Z,0.90
2017-10-01T07:24:22.998Z,1.00
2017-10-01T07:26:53.568Z,0.82
2017-10-01T07:29:23.383Z,1.05
2017-10-01T07:31:53.116Z,0.80
2017-10-01T07:34:23.581Z,0.80
2017-10-01T07:36:53.697Z,0.70
2017-10-01T07:39:24.963Z,0.82
2017-10-01T07:41:56.048Z,0.77
2017-10-01T07:44:40.161Z,0.60
2017-10-01T07:47:10.792Z,0.55
2017-10-01T07:49:41.777Z,0.70
2017-10-01T07:52:11.474Z,0.60
2017-10-01T07:54:43.775Z,0.80
2017-10-01T07:57:14.670Z,0.60
2017-10-01T07:59:49.256Z,0.70
2017-10-01T08:02:21.316Z,0.87
2017-10-01T08:04:52.370Z,1.13
2017-10-01T08:07:22.654Z,1.10
2017-10-01T08:10:00.112Z,1.12
2017-10-01T08:12:30.512Z,0.60
2017-10-01T08:15:01.554Z,0.70
2017-10-01T08:17:31.630Z,0.50
2017-10-01T08:20:01.171Z,0.80
2017-10-01T08:22:32.023Z,0.57
2017-10-01T08:25:01.603Z,0.70
2017-10-01T08:27:31.347Z,1.20
2017-10-01T08:30:05.552Z,1.02
2017-10-01T08:32:37.996Z,0.90
2017-10-01T08:35:12.351Z,1.20
2017-10-01T08:37:46.262Z,0.80
2017-10-01T08:40:24.839Z,0.80
2017-10-01T08:43:03.419Z,0.70
2017-10-01T08:45:33.606Z,0.63
2017-10-01T08:48:03.545Z,0.60
2017-10-01T08:50:33.349Z,0.60
2017-10-01T08:53:03.059Z,0.88
2017-10-01T08:55:33.089Z,0.62
2017-10-01T08:58:02.765Z,0.60
2017-10-01T09:00:33.147Z,0.60
2017-10-01T09:03:03.191Z,0.75
2017-10-01T09:05:42.240Z,0.70
2017-10-01T09:08:13.370Z,0.55
2017-10-01T09:10:42.972Z,0.50
2017-10-01T09:13:13.397Z,0.63
2017-10-01T09:15:43.651Z,0.60
2017-10-01T09:18:16.458Z,0.70
2017-10-01T09:20:47.688Z,0.60
2017-10-01T09:23:18.287Z,0.60
2017-10-01T09:25:47.996Z,0.50
2017-10-01T09:28:20.073Z,0.50
2017-10-01T09:30:51.246Z,0.75
2017-10-01T09:33:21.247Z,0.60
2017-10-01T09:35:51.246Z,0.90
2017-10-01T09:38:38.611Z,0.60
2017-10-01T09:41:09.815Z,0.90
2017-10-01T09:43:39.954Z,0.87
2017-10-01T09:46:09.737Z,0.70
2017-10-01T09:48:40.890Z,0.60
2017-10-01T09:51:10.771Z,0.60
2017-10-01T09:53:41.049Z,0.73
2017-10-01T09:56:12.564Z,1.00
2017-10-01T09:58:43.698Z,0.90
2017-10-01T10:01:13.810Z,0.90
2017-10-01T10:03:46.372Z,1.00
2017-10-01T10:06:16.097Z,0.90
2017-10-01T10:08:45.815Z,0.98
2017-10-01T10:11:15.570Z,0.90
2017-10-01T10:13:45.535Z,1.20
2017-10-01T10:16:15.827Z,0.90
2017-10-01T10:18:45.742Z,1.10
2017-10-01T10:21:15.608Z,1.25
2017-10-01T10:23:46.149Z,1.30
2017-10-01T10:26:16.610Z,1.40
2017-10-01T10:28:46.659Z,1.40
2017-10-01T10:31:18.616Z,1.45
2017-10-01T10:33:48.499Z,5.50
2017-10-01T10:36:18.496Z,1.30
2017-10-01T10:38:51.331Z,1.00
2017-10-01T10:41:21.312Z,1.12
2017-10-01T10:43:51.332Z,1.00
2017-10-01T10:46:20.952Z,1.00
2017-10-01T10:48:50.526Z,0.80
2017-10-01T10:51:20.902Z,1.17
2017-10-01T10:53:52.093Z,0.90
2017-10-01T10:56:22.161Z,1.10
2017-10-01T10:58:53.251Z,1.00
2017-10-01T11:01:23.162Z,1.15
2017-10-01T11:03:53.655Z,0.85
2017-10-01T11:06:23.240Z,0.62
2017-10-01T11:08:53.535Z,0.80
2017-10-01T11:11:23.466Z,1.20
2017-10-01T11:13:54.077Z,1.20
2017-10-01T11:16:24.417Z,0.80
2017-10-01T11:18:54.442Z,0.90
2017-10-01T11:21:24.130Z,1.00
2017-10-01T11:23:53.887Z,1.00
2017-10-01T11:26:23.668Z,0.98
2017-10-01T11:28:53.882Z,0.70
2017-10-01T11:31:23.580Z,0.80
2017-10-01T11:33:54.032Z,0.80
2017-10-01T11:36:24.390Z,0.90
2017-10-01T11:38:54.293Z,0.88
2017-10-01T11:41:24.292Z,1.00
2017-10-01T11:43:55.801Z,2.40
2017-10-01T11:46:25.785Z,1.20
2017-10-01T11:49:01.770Z,0.70
2017-10-01T11:51:34.411Z,0.70
2017-10-01T11:54:06.187Z,1.00
2017-10-01T11:56:36.271Z,0.70
2017-10-01T11:59:06.742Z,0.70
2017-10-01T12:01:37.774Z,0.90
2017-10-01T12:04:07.871Z,0.98
2017-10-01T12:06:40.235Z,1.02
2017-10-01T12:09:12.004Z,0.70
2017-10-01T12:11:42.468Z,0.90
2017-10-01T12:14:14.535Z,0.90
2017-10-01T12:16:50.457Z,0.73
2017-10-01T12:19:20.188Z,0.90
2017-10-01T12:21:50.202Z,0.98
2017-10-01T12:24:19.953Z,1.00
2017-10-01T12:26:49.554Z,1.00
2017-10-01T12:29:20.508Z,1.20
2017-10-01T12:31:50.554Z,1.50
2017-10-01T12:34:20.451Z,1.50
2017-10-01T12:36:51.733Z,1.30
2017-10-01T12:39:27.676Z,1.20
2017-10-01T12:41:59.136Z,1.15
2017-10-01T12:44:29.072Z,1.17
2017-10-01T12:46:59.388Z,1.20
2017-10-01T12:49:30.638Z,0.90
2017-10-01T12:52:00.976Z,0.93
2017-10-01T12:54:32.308Z,1.08
2017-10-01T12:57:02.726Z,1.15
2017-10-01T12:59:32.801Z,1.10
2017-10-01T13:02:11.956Z,1.00
2017-10-01T13:04:41.811Z,0.90
2017-10-01T13:07:12.394Z,1.10
2017-10-01T13:09:42.170Z,1.67
2017-10-01T13:12:11.808Z,2.10
2017-10-01T13:14:41.740Z,1.95
2017-10-01T13:17:11.388Z,2.40
2017-10-01T13:19:40.993Z,2.05
2017-10-01T13:23:31.109Z,1.90
2017-10-01T13:26:01.536Z,2.37
2017-10-01T13:28:31.154Z,1.87
2017-10-01T13:31:02.078Z,1.90
2017-10-01T13:33:33.053Z,1.55
2017-10-01T13:36:02.607Z,1.75
2017-10-01T13:38:32.263Z,1.63
2017-10-01T13:41:02.650Z,1.75
2017-10-01T13:43:32.455Z,1.80
2017-10-01T13:46:02.554Z,1.85
2017-10-01T13:48:32.215Z,1.95
2017-10-01T13:51:01.829Z,1.70
2017-10-01T13:53:31.477Z,1.90
2017-10-01T13:56:01.269Z,1.98
2017-10-01T13:58:31.342Z,1.95
2017-10-01T14:01:01.122Z,2.30
2017-10-01T14:03:30.787Z,2.12
2017-10-01T14:06:01.230Z,2.00
2017-10-01T14:08:31.895Z,2.37
2017-10-01T14:11:01.880Z,2.75
2017-10-01T14:13:31.537Z,2.50
2017-10-01T14:16:01.165Z,3.08
2017-10-01T14:18:31.164Z,2.40
2017-10-01T14:21:01.392Z,2.50
2017-10-01T14:23:31.002Z,2.40
2017-10-01T14:26:01.475Z,2.05
2017-10-01T14:28:31.717Z,2.25
2017-10-01T14:31:05.814Z,3.55
2017-10-01T14:33:35.582Z,2.92
2017-10-01T14:36:05.671Z,2.67
2017-10-01T14:38:35.627Z,2.90
2017-10-01T14:41:06.019Z,2.30
2017-10-01T14:43:35.786Z,2.90
2017-10-01T14:46:05.448Z,2.80
2017-10-01T14:48:35.073Z,2.60
2017-10-01T14:51:04.624Z,2.87
2017-10-01T14:53:34.236Z,2.60
2017-10-01T14:56:03.896Z,2.58
2017-10-01T14:58:35.056Z,2.47
2017-10-01T15:01:04.919Z,2.50
2017-10-01T15:03:35.695Z,2.40
2017-10-01T15:06:05.864Z,2.78
2017-10-01T15:08:36.000Z,2.83
2017-10-01T15:11:05.567Z,2.50
2017-10-01T15:13:35.251Z,2.80
2017-10-01T15:16:05.972Z,3.40
2017-10-01T15:18:35.960Z,3.30
2017-10-01T15:21:06.012Z,3.10
2017-10-01T15:23:35.575Z,3.17
2017-10-01T15:26:05.655Z,3.15
2017-10-01T15:28:35.482Z,3.80
2017-10-01T15:31:10.634Z,3.30
2017-10-01T15:33:40.777Z,3.30
2017-10-01T15:36:11.223Z,3.00
2017-10-01T15:38:43.304Z,2.97
2017-10-01T15:41:13.841Z,2.73
2017-10-01T15:43:44.981Z,3.45
2017-10-01T15:46:15.367Z,3.05
2017-10-01T15:48:44.999Z,3.20
2017-10-01T15:51:14.923Z,2.90
2017-10-01T15:53:45.628Z,3.00
2017-10-01T15:56:15.634Z,2.80
2017-10-01T15:58:45.954Z,3.20
2017-10-01T16:01:15.694Z,2.70
2017-10-01T16:03:45.400Z,2.80
2017-10-01T16:06:15.102Z,3.30
2017-10-01T16:08:44.737Z,3.00
2017-10-01T16:11:14.678Z,2.97
2017-10-01T16:13:44.307Z,3.10
2017-10-01T16:16:15.296Z,3.60
2017-10-01T16:18:45.443Z,3.30
2017-10-01T16:21:15.801Z,3.10
2017-10-01T16:23:45.443Z,3.70
2017-10-01T16:26:15.131Z,3.70
2017-10-01T16:28:45.774Z,4.37
2017-10-01T16:31:15.879Z,3.70
2017-10-01T16:33:45.488Z,4.50
2017-10-01T16:36:16.021Z,3.50
2017-10-01T16:38:47.241Z,3.90
2017-10-01T16:41:19.319Z,3.90
2017-10-01T16:43:49.039Z,3.78
2017-10-01T16:46:18.917Z,3.80
2017-10-01T16:48:49.094Z,4.30
2017-10-01T16:51:19.207Z,4.55
2017-10-01T16:53:49.085Z,4.10
2017-10-01T16:56:20.547Z,4.10
2017-10-01T16:58:50.124Z,3.60
2017-10-01T17:01:20.529Z,3.50
2017-10-01T17:03:50.583Z,3.67
2017-10-01T17:06:21.609Z,3.92
2017-10-01T17:08:52.964Z,4.00
2017-10-01T17:11:23.430Z,3.80
2017-10-01T17:13:53.243Z,3.93
2017-10-01T17:16:24.208Z,3.90
2017-10-01T17:18:55.055Z,4.22
2017-10-01T17:21:26.094Z,4.95
2017-10-01T17:23:57.728Z,5.80
2017-10-01T17:26:28.199Z,4.20
2017-10-01T17:28:58.872Z,4.68
2017-10-01T17:31:29.424Z,4.75
2017-10-01T17:33:59.231Z,4.17
2017-10-01T17:36:29.438Z,4.27
2017-10-01T17:39:06.159Z,3.62
2017-10-01T17:41:36.284Z,4.20
2017-10-01T17:44:06.164Z,3.80
2017-10-01T17:46:35.771Z,3.60
2017-10-01T17:49:05.488Z,3.80
2017-10-01T17:51:36.285Z,3.78
2017-10-01T17:54:06.298Z,4.70
2017-10-01T17:56:36.461Z,3.97
2017-10-01T17:59:07.216Z,3.90
2017-10-01T18:01:36.903Z,4.90
2017-10-01T18:04:07.083Z,6.15
2017-10-01T18:06:37.062Z,6.22
2017-10-01T18:09:08.089Z,5.28
2017-10-01T18:11:38.839Z,5.40
2017-10-01T18:14:08.779Z,5.35
2017-10-01T18:16:39.362Z,4.63
2017-10-01T18:19:09.407Z,4.60
2017-10-01T18:21:39.873Z,4.20
2017-10-01T18:24:09.680Z,4.47
2017-10-01T18:26:39.471Z,3.95
2017-10-01T18:29:10.433Z,3.60
2017-10-01T18:31:40.092Z,3.90
2017-10-01T18:34:10.755Z,4.12
2017-10-01T18:36:41.160Z,3.77
2017-10-01T18:39:11.730Z,4.20
2017-10-01T18:41:41.751Z,4.00
2017-10-01T18:44:12.464Z,4.20
2017-10-01T18:46:42.154Z,4.40
2017-10-01T18:49:13.051Z,4.40
2017-10-01T18:51:43.990Z,4.23
2017-10-01T18:54:14.454Z,4.60
2017-10-01T18:56:45.346Z,5.50
2017-10-01T18:59:15.454Z,4.68
2017-10-01T19:01:45.087Z,4.83
2017-10-01T19:04:14.795Z,4.40
2017-10-01T19:06:44.706Z,4.60
2017-10-01T19:09:15.310Z,5.68
2017-10-01T19:11:44.900Z,5.22
2017-10-01T19:14:16.312Z,5.15
2017-10-01T19:16:47.100Z,6.47
2017-10-01T19:19:17.234Z,6.50
2017-10-01T19:21:47.129Z,6.70
2017-10-01T19:24:18.165Z,6.53
2017-10-01T19:26:48.803Z,6.70
2017-10-01T19:29:21.429Z,6.20
2017-10-01T19:31:51.232Z,6.60
2017-10-01T19:34:20.911Z,5.55
2017-10-01T19:36:50.507Z,5.70
2017-10-01T19:39:20.433Z,5.40
2017-10-01T19:41:51.795Z,5.10
2017-10-01T19:44:21.528Z,5.32
2017-10-01T19:46:51.908Z,5.80
2017-10-01T19:49:22.351Z,5.07
2017-10-01T19:51:51.943Z,5.10
2017-10-01T19:54:22.722Z,5.20
2017-10-01T19:56:52.456Z,4.90
2017-10-01T19:59:22.339Z,4.22
2017-10-01T20:01:52.359Z,3.70
2017-10-01T20:04:22.846Z,3.60
2017-10-01T20:06:52.537Z,4.07
2017-10-01T20:09:22.494Z,4.30
2017-10-01T20:11:57.415Z,4.50
2017-10-01T20:14:27.258Z,4.20
2017-10-01T20:16:56.897Z,4.65
2017-10-01T20:19:26.590Z,4.45
2017-10-01T20:21:56.564Z,4.40
2017-10-01T20:24:27.175Z,4.60
2017-10-01T20:26:57.531Z,4.35
2017-10-01T20:29:27.507Z,4.28
2017-10-01T20:31:57.415Z,4.03
2017-10-01T20:34:27.344Z,4.75
2017-10-01T20:36:57.398Z,4.60
2017-10-01T20:39:27.642Z,4.30
2017-10-01T20:42:00.611Z,4.50
2017-10-01T20:44:35.340Z,4.57
2017-10-01T20:47:10.497Z,4.90
2017-10-01T20:49:41.559Z,4.45
2017-10-01T20:52:17.071Z,3.87
2017-10-01T20:54:47.952Z,3.40
2017-10-01T20:57:17.586Z,3.72
2017-10-01T20:59:47.935Z,3.30
2017-10-01T21:02:17.890Z,3.12
2017-10-01T21:04:50.878Z,3.35
2017-10-01T21:07:20.779Z,3.20
2017-10-01T21:09:51.281Z,3.00
2017-10-01T21:12:21.563Z,3.60
2017-10-01T21:14:51.717Z,3.05
2017-10-01T21:17:22.658Z,3.50
2017-10-01T21:19:53.631Z,3.28
2017-10-01T21:22:27.305Z,3.10
2017-10-01T21:24:57.323Z,3.03
2017-10-01T21:27:27.474Z,3.70
2017-10-01T21:29:57.071Z,4.37
2017-10-01T21:32:27.222Z,4.10
2017-10-01T21:34:57.749Z,4.33
2017-10-01T21:37:27.649Z,4.80
2017-10-01T21:39:57.452Z,4.25
2017-10-01T21:42:27.537Z,4.80
2017-10-01T21:44:57.228Z,4.47
2017-10-01T21:47:26.959Z,4.90
2017-10-01T21:49:57.067Z,4.57
2017-10-01T21:52:27.835Z,5.18
2017-10-01T21:54:58.525Z,4.95
2017-10-01T21:57:30.262Z,4.50
2017-10-01T22:00:00.220Z,5.17
2017-10-01T22:02:30.086Z,4.37
2017-10-01T22:04:59.987Z,5.10
2017-10-01T22:07:30.469Z,4.95
2017-10-01T22:10:00.759Z,5.10
2017-10-01T22:12:31.092Z,5.20
2017-10-01T22:15:01.244Z,5.10
2017-10-01T22:17:31.234Z,4.40
2017-10-01T22:20:00.812Z,4.60
2017-10-01T22:22:30.872Z,4.62
2017-10-01T22:25:01.305Z,4.10
2017-10-01T22:27:31.624Z,4.80
2017-10-01T22:30:01.923Z,4.18
2017-10-01T22:32:31.709Z,3.80
2017-10-01T22:35:01.852Z,5.12
2017-10-01T22:37:31.865Z,4.00
2017-10-01T22:40:01.916Z,4.00
2017-10-01T22:42:32.056Z,4.40
2017-10-01T22:45:02.018Z,4.40
2017-10-01T22:47:32.656Z,4.35
2017-10-01T22:50:02.955Z,4.50
2017-10-01T22:52:33.003Z,3.90
2017-10-01T22:55:03.043Z,4.00
2017-10-01T22:57:34.147Z,4.55
2017-10-01T23:00:04.244Z,4.10
2017-10-01T23:02:34.256Z,4.40
2017-10-01T23:05:04.124Z,3.92
2017-10-01T23:07:34.764Z,4.50
2017-10-01T23:10:04.708Z,4.97
2017-10-01T23:12:34.325Z,4.93
2017-10-01T23:15:04.154Z,4.93
2017-10-01T23:17:34.027Z,5.20
2017-10-01T23:20:04.428Z,4.78
2017-10-01T23:22:34.523Z,4.10
2017-10-01T23:25:05.186Z,4.70
2017-10-01T23:27:34.887Z,4.60
2017-10-01T23:30:04.240Z,3.70
2017-10-01T23:32:34.064Z,4.10
2017-10-01T23:35:04.447Z,4.00
2017-10-01T23:37:34.148Z,3.30
2017-10-01T23:40:03.715Z,3.80
2017-10-01T23:42:33.371Z,3.80
2017-10-01T23:45:03.076Z,4.00
2017-10-01T23:47:33.354Z,3.60
2017-10-01T23:50:03.075Z,4.00
2017-10-01T23:52:32.770Z,3.50
2017-10-01T23:55:03.072Z,4.20
2017-10-01T23:57:33.019Z,3.73
